createdAt,value
2023-04-21T00:00:30.645Z,11.51
2023-04-21T00:03:20.223Z,11.47
2023-04-21T00:05:48.818Z,11.44
2023-04-21T00:08:17.416Z,11.42
2023-04-21T00:10:47.036Z,11.39
2023-04-21T00:13:15.108Z,11.36
2023-04-21T00:15:43.004Z,11.33
2023-04-21T00:18:10.992Z,11.31
2023-04-21T00:20:39.429Z,11.28
2023-04-21T00:23:07.333Z,11.26
2023-04-21T00:25:35.893Z,11.24
2023-04-21T00:28:03.976Z,11.22
2023-04-21T00:30:31.842Z,11.20
2023-04-21T00:32:59.759Z,11.17
2023-04-21T00:35:27.909Z,11.14
2023-04-21T00:37:55.886Z,11.13
2023-04-21T00:40:24.033Z,11.11
2023-04-21T00:42:51.957Z,11.09
2023-04-21T00:45:19.896Z,11.07
2023-04-21T00:47:47.871Z,11.04
2023-04-21T00:50:16.252Z,11.02
2023-04-21T00:52:47.294Z,11.01
2023-04-21T00:55:15.979Z,10.99
2023-04-21T00:57:44.977Z,10.97
2023-04-21T01:00:13.793Z,10.96
2023-04-21T01:02:41.878Z,10.95
2023-04-21T01:05:10.219Z,10.94
2023-04-21T01:07:39.664Z,10.93
2023-04-21T01:10:08.139Z,10.92
2023-04-21T01:12:46.050Z,10.90
2023-04-21T01:15:15.463Z,10.89
2023-04-21T01:17:43.460Z,10.88
2023-04-21T01:20:12.715Z,10.86
2023-04-21T01:22:45.302Z,10.85
2023-04-21T01:25:13.468Z,10.83
2023-04-21T01:27:41.410Z,10.82
2023-04-21T01:30:10.275Z,10.81
2023-04-21T01:32:38.454Z,10.79
2023-04-21T01:35:07.314Z,10.78
2023-04-21T01:37:35.481Z,10.77
2023-04-21T01:40:05.542Z,10.76
2023-04-21T01:42:36.292Z,10.75
2023-04-21T01:45:05.047Z,10.74
2023-04-21T01:47:33.059Z,10.73
2023-04-21T01:50:01.008Z,10.72
2023-04-21T01:52:29.163Z,10.70
2023-04-21T01:54:57.141Z,10.70
2023-04-21T01:57:25.075Z,10.69
2023-04-21T01:59:53.806Z,10.68
2023-04-21T02:02:22.128Z,10.67
2023-04-21T02:04:52.425Z,10.65
2023-04-21T02:07:20.394Z,10.64
2023-04-21T02:09:48.403Z,10.64
2023-04-21T02:12:16.538Z,10.62
2023-04-21T02:14:46.365Z,10.62
2023-04-21T02:17:15.464Z,10.60
2023-04-21T02:19:43.545Z,10.59
2023-04-21T02:22:13.038Z,10.58
2023-04-21T02:24:41.333Z,10.58
2023-04-21T02:27:09.401Z,10.56
2023-04-21T02:29:37.377Z,10.55
2023-04-21T02:32:24.410Z,10.53
2023-04-21T02:34:53.582Z,10.50
2023-04-21T02:37:21.592Z,10.48
2023-04-21T02:39:49.543Z,10.46
2023-04-21T02:42:17.842Z,10.44
2023-04-21T02:44:46.196Z,10.42
2023-04-21T02:47:15.398Z,10.39
2023-04-21T02:49:43.786Z,10.37
2023-04-21T02:52:13.499Z,10.34
2023-04-21T02:54:41.580Z,10.32
2023-04-21T02:57:10.267Z,10.30
2023-04-21T02:59:38.349Z,10.29
2023-04-21T03:02:06.351Z,10.27
2023-04-21T03:04:34.523Z,10.26
2023-04-21T03:07:03.075Z,10.25
2023-04-21T03:09:31.271Z,10.24
2023-04-21T03:12:01.670Z,10.23
2023-04-21T03:14:29.859Z,10.20
2023-04-21T03:16:57.850Z,10.18
2023-04-21T03:19:26.121Z,10.17
2023-04-21T03:21:53.953Z,10.17
2023-04-21T03:24:22.189Z,10.16
2023-04-21T03:26:51.060Z,10.16
2023-04-21T03:29:19.459Z,10.15
2023-04-21T03:31:47.751Z,10.15
2023-04-21T03:34:15.796Z,10.15
2023-04-21T03:36:44.307Z,10.15
2023-04-21T03:39:19.852Z,10.15
2023-04-21T03:41:48.757Z,10.16
2023-04-21T03:44:16.706Z,10.16
2023-04-21T03:46:44.581Z,10.16
2023-04-21T03:49:12.448Z,10.16
2023-04-21T03:51:40.641Z,10.15
2023-04-21T03:54:08.715Z,10.15
2023-04-21T03:56:36.895Z,10.15
2023-04-21T03:59:05.820Z,10.14
2023-04-21T04:01:35.006Z,10.15
2023-04-21T04:04:03.234Z,10.14
2023-04-21T04:06:32.671Z,10.14
2023-04-21T04:09:02.790Z,10.14
2023-04-21T04:11:31.499Z,10.14
2023-04-21T04:13:59.676Z,10.14
2023-04-21T04:16:29.267Z,10.14
2023-04-21T04:18:57.483Z,10.13
2023-04-21T04:21:25.532Z,10.14
2023-04-21T04:23:53.610Z,10.14
2023-04-21T04:26:25.275Z,10.14
2023-04-21T04:28:53.686Z,10.14
2023-04-21T04:31:25.619Z,10.14
2023-04-21T04:33:55.456Z,10.14
2023-04-21T04:36:24.639Z,10.14
2023-04-21T04:38:52.581Z,10.14
2023-04-21T04:41:21.197Z,10.15
2023-04-21T04:43:49.063Z,10.14
2023-04-21T04:46:17.409Z,10.15
2023-04-21T04:48:45.831Z,10.14
2023-04-21T04:51:13.695Z,10.14
2023-04-21T04:53:42.109Z,10.14
2023-04-21T04:56:10.062Z,10.14
2023-04-21T04:58:37.937Z,10.14
2023-04-21T05:01:18.420Z,10.14
2023-04-21T05:03:46.891Z,10.14
2023-04-21T05:06:15.393Z,10.15
2023-04-21T05:08:43.444Z,10.15
2023-04-21T05:11:11.622Z,10.15
2023-04-21T05:13:40.242Z,10.16
2023-04-21T05:16:10.194Z,10.16
2023-04-21T05:18:38.387Z,10.17
2023-04-21T05:21:06.486Z,10.18
2023-04-21T05:23:34.481Z,10.19
2023-04-21T05:26:04.521Z,10.19
2023-04-21T05:28:33.351Z,10.20
2023-04-21T05:31:01.472Z,10.22
2023-04-21T05:33:32.073Z,10.22
2023-04-21T05:36:00.679Z,10.23
2023-04-21T05:38:28.518Z,10.24
2023-04-21T05:40:56.928Z,10.24
2023-04-21T05:43:25.135Z,10.26
2023-04-21T05:45:53.365Z,10.26
2023-04-21T05:48:21.463Z,10.27
2023-04-21T05:50:49.361Z,10.27
2023-04-21T05:53:17.515Z,10.28
2023-04-21T05:55:45.574Z,10.29
2023-04-21T05:58:13.463Z,10.29
2023-04-21T06:00:41.637Z,10.30
2023-04-21T06:03:10.016Z,10.31
2023-04-21T06:05:38.482Z,10.32
2023-04-21T06:08:06.597Z,10.33
2023-04-21T06:10:34.781Z,10.34
2023-04-21T06:13:02.843Z,10.35
2023-04-21T06:15:30.744Z,10.35
2023-04-21T06:17:58.830Z,10.36
2023-04-21T06:20:27.279Z,10.37
2023-04-21T06:22:55.240Z,10.38
2023-04-21T06:25:23.123Z,10.40
2023-04-21T06:27:51.198Z,10.40
2023-04-21T06:30:19.099Z,10.41
2023-04-21T06:32:48.789Z,10.42
2023-04-21T06:35:17.473Z,10.43
2023-04-21T06:37:45.346Z,10.44
2023-04-21T06:40:16.408Z,10.45
2023-04-21T06:42:44.372Z,10.47
2023-04-21T06:45:12.540Z,10.49
2023-04-21T06:47:40.429Z,10.51
2023-04-21T06:50:09.106Z,10.52
2023-04-21T06:52:37.094Z,10.54
2023-04-21T06:55:05.563Z,10.57
2023-04-21T06:57:33.534Z,10.59
2023-04-21T07:00:01.711Z,10.61
2023-04-21T07:02:29.936Z,10.64
2023-04-21T07:04:58.447Z,10.66
2023-04-21T07:07:26.350Z,10.69
2023-04-21T07:09:54.383Z,10.71
2023-04-21T07:12:22.404Z,10.74
2023-04-21T07:14:50.378Z,10.77
2023-04-21T07:17:18.266Z,10.80
2023-04-21T07:19:46.632Z,10.83
2023-04-21T07:22:14.505Z,10.86
2023-04-21T07:24:42.374Z,10.90
2023-04-21T07:27:10.252Z,10.92
2023-04-21T07:29:38.051Z,10.96
2023-04-21T07:32:06.000Z,10.99
2023-04-21T07:34:34.080Z,11.02
2023-04-21T07:37:01.946Z,11.06
2023-04-21T07:39:29.912Z,11.10
2023-04-21T07:41:57.889Z,11.12
2023-04-21T07:44:26.176Z,11.16
2023-04-21T07:46:54.139Z,11.20
2023-04-21T07:49:22.168Z,11.24
2023-04-21T07:51:50.193Z,11.27
2023-04-21T07:54:18.175Z,11.30
2023-04-21T07:56:46.758Z,11.34
2023-04-21T07:59:14.722Z,11.36
2023-04-21T08:01:42.804Z,11.40
2023-04-21T08:04:11.257Z,11.44
2023-04-21T08:06:39.556Z,11.47
2023-04-21T08:09:07.747Z,11.51
2023-04-21T08:11:35.827Z,11.54
2023-04-21T08:14:04.026Z,11.57
2023-04-21T08:16:32.207Z,11.61
2023-04-21T08:19:00.382Z,11.63
2023-04-21T08:21:30.793Z,11.66
2023-04-21T08:23:59.693Z,11.70
2023-04-21T08:26:30.251Z,11.73
2023-04-21T08:28:58.350Z,11.77
2023-04-21T08:31:26.419Z,11.80
2023-04-21T08:34:01.836Z,11.83
2023-04-21T08:36:32.071Z,11.87
2023-04-21T08:39:00.183Z,11.89
2023-04-21T08:41:28.061Z,11.92
2023-04-21T08:43:56.207Z,11.96
2023-04-21T08:46:24.522Z,11.98
2023-04-21T08:48:54.515Z,12.01
2023-04-21T08:51:24.532Z,12.04
2023-04-21T08:53:54.641Z,12.07
2023-04-21T08:56:24.660Z,12.10
2023-04-21T08:58:53.023Z,12.13
2023-04-21T09:01:21.240Z,12.17
2023-04-21T09:03:49.373Z,12.20
2023-04-21T09:06:17.786Z,12.22
2023-04-21T09:08:56.709Z,12.24
2023-04-21T09:11:25.384Z,12.27
2023-04-21T09:13:56.866Z,12.29
2023-04-21T09:16:24.814Z,12.31
2023-04-21T09:18:53.389Z,12.34
2023-04-21T09:21:28.428Z,12.36
2023-04-21T09:23:57.490Z,12.38
2023-04-21T09:26:26.226Z,12.40
2023-04-21T09:28:54.296Z,12.42
2023-04-21T09:31:26.360Z,12.45
2023-04-21T09:33:59.603Z,12.47
2023-04-21T09:36:30.107Z,12.50
2023-04-21T09:41:31.574Z,12.55
2023-04-21T09:44:04.876Z,12.58
2023-04-21T09:46:36.302Z,12.61
2023-04-21T09:49:04.820Z,12.63
2023-04-21T09:54:22.421Z,12.68
2023-04-21T09:56:58.808Z,12.71
2023-04-21T09:59:29.481Z,12.75
2023-04-21T10:01:58.483Z,12.78
2023-04-21T10:04:28.176Z,12.80
2023-04-21T10:06:57.152Z,12.83
2023-04-21T10:09:27.578Z,12.86
2023-04-21T10:11:55.863Z,12.90
2023-04-21T10:14:25.884Z,12.92
2023-04-21T10:16:57.637Z,12.95
2023-04-21T10:19:26.851Z,12.99
2023-04-21T10:21:57.883Z,13.03
2023-04-21T10:24:29.165Z,13.06
2023-04-21T10:26:59.774Z,13.09
2023-04-21T10:29:43.658Z,13.11
2023-04-21T10:32:31.589Z,13.15
2023-04-21T10:34:59.504Z,13.19
2023-04-21T10:37:31.336Z,13.22
2023-04-21T10:39:59.242Z,13.25
2023-04-21T10:42:28.052Z,13.27
2023-04-21T10:44:58.823Z,13.30
2023-04-21T10:47:44.673Z,13.33
2023-04-21T10:50:12.951Z,13.36
2023-04-21T10:52:43.888Z,13.39
2023-04-21T10:55:12.998Z,13.42
2023-04-21T10:57:44.105Z,13.46
2023-04-21T11:00:15.890Z,13.50
2023-04-21T11:02:45.001Z,13.53
2023-04-21T11:05:13.945Z,13.55
2023-04-21T11:07:42.274Z,13.59
2023-04-21T11:10:11.596Z,13.62
2023-04-21T11:12:40.448Z,13.65
2023-04-21T11:15:09.826Z,13.68
2023-04-21T11:17:43.692Z,13.70
2023-04-21T11:20:12.059Z,13.73
2023-04-21T11:22:40.045Z,13.77
2023-04-21T11:25:17.008Z,13.80
2023-04-21T11:27:53.683Z,13.84
2023-04-21T11:30:22.276Z,13.87
2023-04-21T11:32:56.450Z,13.91
2023-04-21T11:35:24.427Z,13.94
2023-04-21T11:37:52.443Z,13.98
2023-04-21T11:40:20.497Z,14.00
2023-04-21T11:42:48.699Z,14.02
2023-04-21T11:45:19.916Z,14.06
2023-04-21T11:47:50.313Z,14.09
2023-04-21T11:50:32.473Z,14.11
2023-04-21T11:53:02.379Z,14.14
2023-04-21T11:55:30.581Z,14.17
2023-04-21T11:57:58.853Z,14.20
2023-04-21T12:00:30.965Z,14.22
2023-04-21T12:02:59.164Z,14.25
2023-04-21T12:05:34.547Z,14.29
2023-04-21T12:08:04.157Z,14.33
2023-04-21T12:10:32.327Z,14.36
2023-04-21T12:13:00.291Z,14.40
2023-04-21T12:15:30.013Z,14.44
2023-04-21T12:17:58.012Z,14.48
2023-04-21T12:20:28.806Z,14.51
2023-04-21T12:22:56.903Z,14.54
2023-04-21T12:25:25.317Z,14.58
2023-04-21T12:27:54.595Z,14.61
2023-04-21T12:30:22.568Z,14.64
2023-04-21T12:32:52.437Z,14.68
2023-04-21T12:35:20.517Z,14.72
2023-04-21T12:37:48.440Z,14.77
2023-04-21T12:40:16.430Z,14.81
2023-04-21T12:42:44.375Z,14.85
2023-04-21T12:45:16.366Z,14.89
2023-04-21T12:47:46.758Z,14.93
2023-04-21T12:50:15.882Z,14.96
2023-04-21T12:52:43.723Z,14.99
2023-04-21T12:55:13.485Z,15.02
2023-04-21T12:57:41.427Z,15.06
2023-04-21T13:00:12.522Z,15.09
2023-04-21T13:02:41.146Z,15.12
2023-04-21T13:05:10.787Z,15.14
2023-04-21T13:07:39.005Z,15.16
2023-04-21T13:10:07.866Z,15.18
2023-04-21T13:12:35.850Z,15.20
2023-04-21T13:15:04.108Z,15.21
2023-04-21T13:17:32.914Z,15.24
2023-04-21T13:20:01.146Z,15.25
2023-04-21T13:22:29.523Z,15.25
2023-04-21T13:24:57.446Z,15.26
2023-04-21T13:27:25.820Z,15.28
2023-04-21T13:29:54.516Z,15.28
2023-04-21T13:32:22.445Z,15.28
2023-04-21T13:34:50.464Z,15.28
2023-04-21T13:37:18.826Z,15.28
2023-04-21T13:39:47.128Z,15.28
2023-04-21T13:42:15.511Z,15.27
2023-04-21T13:44:43.605Z,15.26
2023-04-21T13:47:11.834Z,15.27
2023-04-21T13:49:40.259Z,15.26
2023-04-21T13:52:08.120Z,15.25
2023-04-21T13:54:36.164Z,15.25
2023-04-21T13:57:04.398Z,15.25
2023-04-21T13:59:32.640Z,15.25
2023-04-21T14:02:01.270Z,15.23
2023-04-21T14:04:30.315Z,15.23
2023-04-21T14:06:58.456Z,15.22
2023-04-21T14:09:26.312Z,15.23
2023-04-21T14:11:54.491Z,15.23
2023-04-21T14:14:35.390Z,15.23
2023-04-21T14:17:07.161Z,15.23
2023-04-21T14:19:35.993Z,15.24
2023-04-21T14:22:04.487Z,15.24
2023-04-21T14:24:32.562Z,15.25
2023-04-21T14:27:01.353Z,15.25
2023-04-21T14:29:29.510Z,15.25
2023-04-21T14:31:58.119Z,15.26
2023-04-21T14:34:26.544Z,15.26
2023-04-21T14:36:54.689Z,15.27
2023-04-21T14:39:23.198Z,15.27
2023-04-21T14:41:51.250Z,15.26
2023-04-21T14:44:19.398Z,15.27
2023-04-21T14:46:56.981Z,15.27
2023-04-21T14:49:29.446Z,15.28
2023-04-21T14:51:57.719Z,15.27
2023-04-21T14:54:25.667Z,15.28
2023-04-21T14:57:03.418Z,15.28
2023-04-21T14:59:39.513Z,15.28
2023-04-21T15:02:09.031Z,15.28
2023-04-21T15:04:37.225Z,15.28
2023-04-21T15:07:05.028Z,15.29
2023-04-21T15:09:33.516Z,15.28
2023-04-21T15:12:01.911Z,15.28
2023-04-21T15:14:29.804Z,15.29
2023-04-21T15:16:57.740Z,15.29
2023-04-21T15:19:25.923Z,15.29
2023-04-21T15:21:53.868Z,15.29
2023-04-21T15:24:21.803Z,15.28
2023-04-21T15:26:49.626Z,15.28
2023-04-21T15:29:17.764Z,15.28
2023-04-21T15:31:45.843Z,15.28
2023-04-21T15:34:13.813Z,15.28
2023-04-21T15:36:41.675Z,15.28
2023-04-21T15:39:13.909Z,15.28
2023-04-21T15:41:42.332Z,15.27
2023-04-21T15:44:10.930Z,15.27
2023-04-21T15:46:39.179Z,15.27
2023-04-21T15:49:07.285Z,15.26
2023-04-21T15:51:35.468Z,15.26
2023-04-21T15:54:04.389Z,15.25
2023-04-21T15:56:32.360Z,15.25
2023-04-21T15:59:00.501Z,15.24
2023-04-21T16:01:28.737Z,15.24
2023-04-21T16:03:57.019Z,15.23
2023-04-21T16:06:25.631Z,15.23
2023-04-21T16:08:53.627Z,15.22
2023-04-21T16:11:23.685Z,15.21
2023-04-21T16:13:52.855Z,15.21
2023-04-21T16:16:20.980Z,15.20
2023-04-21T16:18:49.003Z,15.20
2023-04-21T16:21:17.248Z,15.20
2023-04-21T16:23:45.334Z,15.19
2023-04-21T16:26:13.342Z,15.19
2023-04-21T16:28:41.452Z,15.19
2023-04-21T16:31:09.572Z,15.19
2023-04-21T16:33:37.677Z,15.18
2023-04-21T16:36:05.750Z,15.18
2023-04-21T16:38:33.985Z,15.17
2023-04-21T16:41:02.263Z,15.17
2023-04-21T16:43:30.181Z,15.16
2023-04-21T16:45:58.303Z,15.16
2023-04-21T16:48:26.255Z,15.15
2023-04-21T16:50:54.355Z,15.14
2023-04-21T16:53:25.533Z,15.13
2023-04-21T16:55:53.622Z,15.12
2023-04-21T16:58:22.323Z,15.11
2023-04-21T17:00:51.032Z,15.10
2023-04-21T17:03:19.240Z,15.09
2023-04-21T17:05:47.268Z,15.06
2023-04-21T17:08:15.341Z,15.04
2023-04-21T17:10:43.350Z,15.02
2023-04-21T17:13:11.393Z,14.99
2023-04-21T17:15:39.385Z,14.97
2023-04-21T17:18:07.463Z,14.95
2023-04-21T17:20:35.629Z,14.92
2023-04-21T17:23:03.899Z,14.90
2023-04-21T17:25:32.184Z,14.88
2023-04-21T17:28:00.457Z,14.85
2023-04-21T17:30:28.420Z,14.82
2023-04-21T17:33:08.331Z,14.80
2023-04-21T17:35:55.760Z,14.77
2023-04-21T17:38:30.427Z,14.74
2023-04-21T17:40:59.407Z,14.71
2023-04-21T17:43:27.612Z,14.68
2023-04-21T17:45:55.615Z,14.64
2023-04-21T17:48:23.538Z,14.60
2023-04-21T17:50:52.135Z,14.57
2023-04-21T17:53:20.138Z,14.54
2023-04-21T17:55:48.639Z,14.51
2023-04-21T17:58:16.575Z,14.48
2023-04-21T18:00:44.409Z,14.46
2023-04-21T18:03:12.561Z,14.42
2023-04-21T18:05:40.903Z,14.38
2023-04-21T18:08:09.168Z,14.35
2023-04-21T18:10:37.549Z,14.33
2023-04-21T18:13:06.378Z,14.30
2023-04-21T18:15:35.698Z,14.27
2023-04-21T18:18:04.045Z,14.24
2023-04-21T18:20:32.550Z,14.21
2023-04-21T18:23:00.618Z,14.19
2023-04-21T18:25:41.442Z,14.16
2023-04-21T18:28:13.395Z,14.13
2023-04-21T18:30:41.696Z,14.10
2023-04-21T18:33:11.665Z,14.07
2023-04-21T18:35:41.366Z,14.04
2023-04-21T18:38:11.878Z,14.01
2023-04-21T18:40:41.197Z,13.98
2023-04-21T18:43:12.748Z,13.95
2023-04-21T18:45:40.931Z,13.92
2023-04-21T18:48:09.187Z,13.90
2023-04-21T18:50:40.555Z,13.87
2023-04-21T18:53:09.204Z,13.85
2023-04-21T18:55:37.735Z,13.82
2023-04-21T18:58:06.135Z,13.80
2023-04-21T19:00:37.566Z,13.78
2023-04-21T19:03:06.440Z,13.75
2023-04-21T19:05:36.285Z,13.73
2023-04-21T19:08:04.365Z,13.71
2023-04-21T19:10:34.388Z,13.70
2023-04-21T19:13:02.363Z,13.68
2023-04-21T19:15:30.528Z,13.66
2023-04-21T19:17:58.573Z,13.64
2023-04-21T19:20:27.001Z,13.62
2023-04-21T19:22:54.972Z,13.60
2023-04-21T19:25:22.942Z,13.57
2023-04-21T19:27:51.650Z,13.55
2023-04-21T19:30:19.824Z,13.54
2023-04-21T19:32:47.952Z,13.52
2023-04-21T19:35:16.812Z,13.50
2023-04-21T19:37:45.070Z,13.49
2023-04-21T19:40:13.551Z,13.47
2023-04-21T19:42:42.071Z,13.45
2023-04-21T19:45:10.403Z,13.42
2023-04-21T19:47:38.809Z,13.41
2023-04-21T19:50:08.346Z,13.38
2023-04-21T19:52:36.498Z,13.37
2023-04-21T19:55:04.870Z,13.34
2023-04-21T19:57:32.859Z,13.32
2023-04-21T20:00:01.139Z,13.29
2023-04-21T20:02:29.191Z,13.28
2023-04-21T20:04:57.523Z,13.27
2023-04-21T20:07:25.782Z,13.25
2023-04-21T20:09:53.752Z,13.24
2023-04-21T20:12:21.928Z,13.22
2023-04-21T20:14:49.801Z,13.19
2023-04-21T20:17:17.882Z,13.16
2023-04-21T20:19:47.085Z,13.14
2023-04-21T20:22:15.255Z,13.12
2023-04-21T20:24:43.236Z,13.10
2023-04-21T20:27:11.409Z,13.09
2023-04-21T20:29:39.796Z,13.07
2023-04-21T20:32:08.196Z,13.05
2023-04-21T20:34:36.335Z,13.04
2023-04-21T20:37:05.349Z,13.02
2023-04-21T20:39:33.530Z,12.99
2023-04-21T20:42:12.475Z,12.96
2023-04-21T20:44:42.809Z,12.94
2023-04-21T20:47:12.115Z,12.93
2023-04-21T20:49:40.503Z,12.91
2023-04-21T20:52:09.170Z,12.88
2023-04-21T20:54:37.649Z,12.86
2023-04-21T20:57:07.675Z,12.84
2023-04-21T20:59:35.967Z,12.81
2023-04-21T21:02:04.421Z,12.79
2023-04-21T21:04:32.769Z,12.76
2023-04-21T21:07:01.889Z,12.72
2023-04-21T21:09:30.729Z,12.70
2023-04-21T21:11:59.092Z,12.68
2023-04-21T21:14:27.378Z,12.65
2023-04-21T21:16:56.652Z,12.62
2023-04-21T21:19:24.964Z,12.59
2023-04-21T21:21:53.016Z,12.57
2023-04-21T21:24:21.016Z,12.55
2023-04-21T21:26:48.980Z,12.54
2023-04-21T21:29:17.057Z,12.53
2023-04-21T21:31:45.193Z,12.51
2023-04-21T21:34:13.219Z,12.50
2023-04-21T21:36:41.594Z,12.48
2023-04-21T21:39:11.324Z,12.47
2023-04-21T21:41:39.790Z,12.44
2023-04-21T21:44:08.499Z,12.42
2023-04-21T21:46:36.496Z,12.40
2023-04-21T21:49:04.454Z,12.38
2023-04-21T21:51:32.604Z,12.37
2023-04-21T21:54:00.698Z,12.35
2023-04-21T21:56:28.980Z,12.33
2023-04-21T21:58:57.031Z,12.30
2023-04-21T22:01:25.183Z,12.27
2023-04-21T22:03:54.047Z,12.23
2023-04-21T22:06:22.491Z,12.20
2023-04-21T22:08:50.376Z,12.15
2023-04-21T22:11:19.792Z,12.11
2023-04-21T22:13:47.856Z,12.08
2023-04-21T22:16:16.994Z,12.05
2023-04-21T22:18:45.127Z,12.03
2023-04-21T22:21:13.310Z,12.01
2023-04-21T22:23:41.598Z,11.99
2023-04-21T22:26:09.775Z,11.98
2023-04-21T22:28:37.971Z,11.95
2023-04-21T22:31:06.410Z,11.94
2023-04-21T22:33:34.926Z,11.93
2023-04-21T22:36:03.130Z,11.92
2023-04-21T22:38:31.178Z,11.90
2023-04-21T22:40:59.152Z,11.87
2023-04-21T22:43:27.130Z,11.85
2023-04-21T22:45:55.725Z,11.84
2023-04-21T22:48:26.183Z,11.83
2023-04-21T22:50:55.560Z,11.80
2023-04-21T22:53:23.552Z,11.78
2023-04-21T22:55:51.710Z,11.76
2023-04-21T22:58:19.562Z,11.75
2023-04-21T23:00:47.807Z,11.74
2023-04-21T23:03:16.213Z,11.72
2023-04-21T23:05:44.317Z,11.70
2023-04-21T23:08:12.403Z,11.69
2023-04-21T23:10:40.683Z,11.68
2023-04-21T23:13:08.653Z,11.68
2023-04-21T23:15:36.829Z,11.67
2023-04-21T23:18:04.847Z,11.66
2023-04-21T23:20:32.807Z,11.66
2023-04-21T23:23:00.849Z,11.65
2023-04-21T23:25:28.846Z,11.65
2023-04-21T23:27:57.124Z,11.64
2023-04-21T23:30:25.088Z,11.63
2023-04-21T23:32:52.983Z,11.62
2023-04-21T23:35:20.902Z,11.61
2023-04-21T23:37:48.964Z,11.61
2023-04-21T23:40:16.911Z,11.60
2023-04-21T23:42:47.357Z,11.60
2023-04-21T23:45:15.787Z,11.59
2023-04-21T23:47:43.999Z,11.60
2023-04-21T23:50:12.660Z,11.59
2023-04-21T23:52:44.836Z,11.59
2023-04-21T23:55:12.809Z,11.57
2023-04-21T23:57:40.920Z,11.54
